sensor_id;sensor_type;location;lat;lon;timestamp;temperature;humidity
18388;DHT22;9320;50.256;19.026;2022-07-05T00:00:59;23.40;69.20
18388;DHT22;9320;50.256;19.026;2022-07-05T00:03:27;23.50;69.10
18388;DHT22;9320;50.256;19.026;2022-07-05T00:05:56;23.40;69.20
18388;DHT22;9320;50.256;19.026;2022-07-05T00:08:25;23.40;69.60
18388;DHT22;9320;50.256;19.026;2022-07-05T00:10:53;23.30;69.60
18388;DHT22;9320;50.256;19.026;2022-07-05T00:13:21;23.30;69.50
18388;DHT22;9320;50.256;19.026;2022-07-05T00:15:51;23.40;69.70
18388;DHT22;9320;50.256;19.026;2022-07-05T00:18:19;23.40;69.80
18388;DHT22;9320;50.256;19.026;2022-07-05T00:20:47;23.40;69.80
18388;DHT22;9320;50.256;19.026;2022-07-05T00:23:15;23.40;69.60
18388;DHT22;9320;50.256;19.026;2022-07-05T00:25:44;23.40;69.50
18388;DHT22;9320;50.256;19.026;2022-07-05T00:28:12;23.40;69.30
18388;DHT22;9320;50.256;19.026;2022-07-05T00:30:42;23.50;69.20
18388;DHT22;9320;50.256;19.026;2022-07-05T00:33:12;23.40;69.50
18388;DHT22;9320;50.256;19.026;2022-07-05T00:35:40;23.30;69.70
18388;DHT22;9320;50.256;19.026;2022-07-05T00:38:08;23.30;70.00
18388;DHT22;9320;50.256;19.026;2022-07-05T00:40:36;23.30;70.20
18388;DHT22;9320;50.256;19.026;2022-07-05T00:43:05;23.30;70.10
18388;DHT22;9320;50.256;19.026;2022-07-05T00:45:33;23.30;70.20
18388;DHT22;9320;50.256;19.026;2022-07-05T00:48:01;23.30;69.70
18388;DHT22;9320;50.256;19.026;2022-07-05T00:50:31;23.30;70.30
18388;DHT22;9320;50.256;19.026;2022-07-05T00:52:59;23.30;70.30
18388;DHT22;9320;50.256;19.026;2022-07-05T00:55:28;23.30;70.50
18388;DHT22;9320;50.256;19.026;2022-07-05T00:57:56;23.30;70.60
18388;DHT22;9320;50.256;19.026;2022-07-05T01:00:25;23.30;70.80
18388;DHT22;9320;50.256;19.026;2022-07-05T01:02:53;23.30;70.80
18388;DHT22;9320;50.256;19.026;2022-07-05T01:05:22;23.30;70.60
18388;DHT22;9320;50.256;19.026;2022-07-05T01:07:51;23.40;70.70
18388;DHT22;9320;50.256;19.026;2022-07-05T01:10:20;23.40;70.90
18388;DHT22;9320;50.256;19.026;2022-07-05T01:12:48;23.30;71.10
18388;DHT22;9320;50.256;19.026;2022-07-05T01:15:17;23.30;71.20
18388;DHT22;9320;50.256;19.026;2022-07-05T01:17:48;23.30;71.40
18388;DHT22;9320;50.256;19.026;2022-07-05T01:20:16;23.30;71.40
18388;DHT22;9320;50.256;19.026;2022-07-05T01:22:53;23.30;71.60
18388;DHT22;9320;50.256;19.026;2022-07-05T01:25:22;23.30;71.60
18388;DHT22;9320;50.256;19.026;2022-07-05T01:27:52;23.30;71.40
18388;DHT22;9320;50.256;19.026;2022-07-05T01:30:21;23.30;71.40
18388;DHT22;9320;50.256;19.026;2022-07-05T01:32:49;23.30;71.80
18388;DHT22;9320;50.256;19.026;2022-07-05T01:35:18;23.20;72.00
18388;DHT22;9320;50.256;19.026;2022-07-05T01:37:49;23.30;71.90
18388;DHT22;9320;50.256;19.026;2022-07-05T01:40:19;23.30;71.70
18388;DHT22;9320;50.256;19.026;2022-07-05T01:42:48;23.30;71.90
18388;DHT22;9320;50.256;19.026;2022-07-05T01:45:16;23.30;72.30
18388;DHT22;9320;50.256;19.026;2022-07-05T01:48:07;23.20;73.10
18388;DHT22;9320;50.256;19.026;2022-07-05T01:50:38;23.20;73.30
18388;DHT22;9320;50.256;19.026;2022-07-05T01:53:11;23.10;74.10
18388;DHT22;9320;50.256;19.026;2022-07-05T01:55:43;23.10;74.90
18388;DHT22;9320;50.256;19.026;2022-07-05T01:58:12;23.10;74.40
18388;DHT22;9320;50.256;19.026;2022-07-05T02:00:44;23.10;75.60
18388;DHT22;9320;50.256;19.026;2022-07-05T02:03:14;22.90;76.10
18388;DHT22;9320;50.256;19.026;2022-07-05T02:05:54;22.90;77.00
18388;DHT22;9320;50.256;19.026;2022-07-05T02:08:28;22.80;77.10
18388;DHT22;9320;50.256;19.026;2022-07-05T02:10:58;22.80;76.60
18388;DHT22;9320;50.256;19.026;2022-07-05T02:13:26;22.80;76.70
18388;DHT22;9320;50.256;19.026;2022-07-05T02:15:55;22.80;76.90
18388;DHT22;9320;50.256;19.026;2022-07-05T02:18:23;22.70;77.40
18388;DHT22;9320;50.256;19.026;2022-07-05T02:20:51;22.60;77.90
18388;DHT22;9320;50.256;19.026;2022-07-05T02:23:19;22.60;77.70
18388;DHT22;9320;50.256;19.026;2022-07-05T02:25:47;22.60;78.40
18388;DHT22;9320;50.256;19.026;2022-07-05T02:28:17;22.60;78.70
18388;DHT22;9320;50.256;19.026;2022-07-05T02:30:45;22.60;78.60
18388;DHT22;9320;50.256;19.026;2022-07-05T02:33:15;22.70;78.50
18388;DHT22;9320;50.256;19.026;2022-07-05T02:35:43;22.60;78.80
18388;DHT22;9320;50.256;19.026;2022-07-05T02:38:11;22.70;78.60
18388;DHT22;9320;50.256;19.026;2022-07-05T02:40:39;22.70;78.70
18388;DHT22;9320;50.256;19.026;2022-07-05T02:43:07;22.70;78.60
18388;DHT22;9320;50.256;19.026;2022-07-05T02:45:37;22.80;78.40
18388;DHT22;9320;50.256;19.026;2022-07-05T02:48:05;22.80;78.20
18388;DHT22;9320;50.256;19.026;2022-07-05T02:50:33;22.80;78.20
18388;DHT22;9320;50.256;19.026;2022-07-05T02:53:02;22.90;78.10
18388;DHT22;9320;50.256;19.026;2022-07-05T02:55:30;22.80;78.10
18388;DHT22;9320;50.256;19.026;2022-07-05T02:57:58;22.80;78.20
18388;DHT22;9320;50.256;19.026;2022-07-05T03:00:26;22.80;79.20
18388;DHT22;9320;50.256;19.026;2022-07-05T03:02:57;22.80;80.10
18388;DHT22;9320;50.256;19.026;2022-07-05T03:05:25;22.70;81.00
18388;DHT22;9320;50.256;19.026;2022-07-05T03:07:53;22.50;81.40
18388;DHT22;9320;50.256;19.026;2022-07-05T03:10:22;22.50;81.10
18388;DHT22;9320;50.256;19.026;2022-07-05T03:12:52;22.50;81.90
18388;DHT22;9320;50.256;19.026;2022-07-05T03:15:20;22.50;82.50
18388;DHT22;9320;50.256;19.026;2022-07-05T03:17:48;22.50;83.00
18388;DHT22;9320;50.256;19.026;2022-07-05T03:20:19;22.50;83.50
18388;DHT22;9320;50.256;19.026;2022-07-05T03:22:47;22.50;84.70
18388;DHT22;9320;50.256;19.026;2022-07-05T03:25:16;22.40;84.90
18388;DHT22;9320;50.256;19.026;2022-07-05T03:27:44;22.50;85.00
18388;DHT22;9320;50.256;19.026;2022-07-05T03:30:13;22.50;85.70
18388;DHT22;9320;50.256;19.026;2022-07-05T03:32:41;22.50;86.00
18388;DHT22;9320;50.256;19.026;2022-07-05T03:35:10;22.50;86.70
18388;DHT22;9320;50.256;19.026;2022-07-05T03:37:39;22.50;87.00
18388;DHT22;9320;50.256;19.026;2022-07-05T03:40:08;22.40;88.20
18388;DHT22;9320;50.256;19.026;2022-07-05T03:42:37;22.50;89.50
18388;DHT22;9320;50.256;19.026;2022-07-05T03:45:06;22.50;90.20
18388;DHT22;9320;50.256;19.026;2022-07-05T03:47:34;22.50;90.30
18388;DHT22;9320;50.256;19.026;2022-07-05T03:50:03;22.40;90.60
18388;DHT22;9320;50.256;19.026;2022-07-05T03:52:31;22.40;91.30
18388;DHT22;9320;50.256;19.026;2022-07-05T03:55:01;22.30;92.80
18388;DHT22;9320;50.256;19.026;2022-07-05T03:57:29;22.30;92.20
18388;DHT22;9320;50.256;19.026;2022-07-05T03:59:57;22.30;92.40
18388;DHT22;9320;50.256;19.026;2022-07-05T04:02:26;22.30;92.20
18388;DHT22;9320;50.256;19.026;2022-07-05T04:04:54;22.30;92.90
18388;DHT22;9320;50.256;19.026;2022-07-05T04:07:22;22.30;93.20
18388;DHT22;9320;50.256;19.026;2022-07-05T04:09:50;22.30;93.60
18388;DHT22;9320;50.256;19.026;2022-07-05T04:12:20;22.30;93.60
18388;DHT22;9320;50.256;19.026;2022-07-05T04:14:48;22.30;93.90
18388;DHT22;9320;50.256;19.026;2022-07-05T04:17:16;22.30;92.90
18388;DHT22;9320;50.256;19.026;2022-07-05T04:19:45;22.40;92.90
18388;DHT22;9320;50.256;19.026;2022-07-05T04:22:13;22.40;92.00
18388;DHT22;9320;50.256;19.026;2022-07-05T04:24:42;22.30;92.70
18388;DHT22;9320;50.256;19.026;2022-07-05T04:27:29;22.30;92.20
18388;DHT22;9320;50.256;19.026;2022-07-05T04:29:57;22.30;92.50
18388;DHT22;9320;50.256;19.026;2022-07-05T04:32:25;22.30;92.50
18388;DHT22;9320;50.256;19.026;2022-07-05T04:34:53;22.30;92.50
18388;DHT22;9320;50.256;19.026;2022-07-05T04:37:22;22.30;92.90
18388;DHT22;9320;50.256;19.026;2022-07-05T04:39:50;22.30;92.70
18388;DHT22;9320;50.256;19.026;2022-07-05T04:42:18;22.40;93.10
18388;DHT22;9320;50.256;19.026;2022-07-05T04:44:48;22.50;93.90
18388;DHT22;9320;50.256;19.026;2022-07-05T04:47:16;22.40;94.70
18388;DHT22;9320;50.256;19.026;2022-07-05T04:49:44;22.40;94.30
18388;DHT22;9320;50.256;19.026;2022-07-05T04:52:13;22.20;95.00
18388;DHT22;9320;50.256;19.026;2022-07-05T04:54:41;22.10;96.60
18388;DHT22;9320;50.256;19.026;2022-07-05T04:57:09;22.10;97.70
18388;DHT22;9320;50.256;19.026;2022-07-05T04:59:37;22.20;97.80
18388;DHT22;9320;50.256;19.026;2022-07-05T05:02:07;22.20;98.40
18388;DHT22;9320;50.256;19.026;2022-07-05T05:04:35;22.20;99.00
18388;DHT22;9320;50.256;19.026;2022-07-05T05:07:04;22.10;99.90
18388;DHT22;9320;50.256;19.026;2022-07-05T05:09:32;22.10;99.90
18388;DHT22;9320;50.256;19.026;2022-07-05T05:12:00;22.10;99.90
18388;DHT22;9320;50.256;19.026;2022-07-05T05:14:29;22.20;99.90
18388;DHT22;9320;50.256;19.026;2022-07-05T05:16:57;22.20;99.90
18388;DHT22;9320;50.256;19.026;2022-07-05T05:19:26;22.20;99.90
18388;DHT22;9320;50.256;19.026;2022-07-05T05:21:54;22.10;99.90
18388;DHT22;9320;50.256;19.026;2022-07-05T05:24:23;22.10;99.90
18388;DHT22;9320;50.256;19.026;2022-07-05T05:26:51;22.10;99.90
18388;DHT22;9320;50.256;19.026;2022-07-05T05:29:19;22.00;99.90
18388;DHT22;9320;50.256;19.026;2022-07-05T05:31:48;21.90;99.90
18388;DHT22;9320;50.256;19.026;2022-07-05T05:34:16;21.80;99.90
18388;DHT22;9320;50.256;19.026;2022-07-05T05:36:46;21.70;99.90
18388;DHT22;9320;50.256;19.026;2022-07-05T05:39:14;21.70;99.90
18388;DHT22;9320;50.256;19.026;2022-07-05T05:41:43;21.80;99.90
18388;DHT22;9320;50.256;19.026;2022-07-05T05:44:11;21.90;99.90
18388;DHT22;9320;50.256;19.026;2022-07-05T05:46:39;21.80;99.90
18388;DHT22;9320;50.256;19.026;2022-07-05T05:49:07;21.80;99.90
18388;DHT22;9320;50.256;19.026;2022-07-05T05:51:35;21.80;99.90
18388;DHT22;9320;50.256;19.026;2022-07-05T05:54:05;21.70;99.90
18388;DHT22;9320;50.256;19.026;2022-07-05T05:56:33;21.60;99.90
18388;DHT22;9320;50.256;19.026;2022-07-05T05:59:01;21.50;99.90
18388;DHT22;9320;50.256;19.026;2022-07-05T06:01:29;21.40;99.90
18388;DHT22;9320;50.256;19.026;2022-07-05T06:03:58;21.40;99.90
18388;DHT22;9320;50.256;19.026;2022-07-05T06:06:26;21.50;99.90
18388;DHT22;9320;50.256;19.026;2022-07-05T06:08:54;21.50;99.90
18388;DHT22;9320;50.256;19.026;2022-07-05T06:11:24;21.30;99.90
18388;DHT22;9320;50.256;19.026;2022-07-05T06:13:52;21.30;99.90
18388;DHT22;9320;50.256;19.026;2022-07-05T06:16:20;21.30;99.90
18388;DHT22;9320;50.256;19.026;2022-07-05T06:18:49;21.30;99.90
18388;DHT22;9320;50.256;19.026;2022-07-05T06:21:17;21.20;99.90
18388;DHT22;9320;50.256;19.026;2022-07-05T06:23:45;21.30;99.90
18388;DHT22;9320;50.256;19.026;2022-07-05T06:26:13;21.30;99.90
18388;DHT22;9320;50.256;19.026;2022-07-05T06:28:43;21.40;99.90
18388;DHT22;9320;50.256;19.026;2022-07-05T06:31:11;21.50;99.90
18388;DHT22;9320;50.256;19.026;2022-07-05T06:33:39;21.50;99.90
18388;DHT22;9320;50.256;19.026;2022-07-05T06:36:08;21.60;99.90
18388;DHT22;9320;50.256;19.026;2022-07-05T06:38:36;21.70;99.90
18388;DHT22;9320;50.256;19.026;2022-07-05T06:41:04;21.70;99.90
18388;DHT22;9320;50.256;19.026;2022-07-05T06:43:32;21.50;99.90
18388;DHT22;9320;50.256;19.026;2022-07-05T06:46:02;21.40;99.90
18388;DHT22;9320;50.256;19.026;2022-07-05T06:48:30;21.40;99.90
18388;DHT22;9320;50.256;19.026;2022-07-05T06:50:58;21.50;99.90
18388;DHT22;9320;50.256;19.026;2022-07-05T06:53:27;21.50;99.90
18388;DHT22;9320;50.256;19.026;2022-07-05T06:55:55;21.50;99.90
18388;DHT22;9320;50.256;19.026;2022-07-05T06:58:23;21.50;99.90
18388;DHT22;9320;50.256;19.026;2022-07-05T07:00:52;21.50;99.90
18388;DHT22;9320;50.256;19.026;2022-07-05T07:03:41;21.50;99.90
18388;DHT22;9320;50.256;19.026;2022-07-05T07:06:30;21.50;99.90
18388;DHT22;9320;50.256;19.026;2022-07-05T07:08:58;21.50;99.90
18388;DHT22;9320;50.256;19.026;2022-07-05T07:11:44;21.40;99.90
18388;DHT22;9320;50.256;19.026;2022-07-05T07:14:12;21.50;99.90
18388;DHT22;9320;50.256;19.026;2022-07-05T07:16:41;21.50;99.90
18388;DHT22;9320;50.256;19.026;2022-07-05T07:19:10;21.60;99.90
18388;DHT22;9320;50.256;19.026;2022-07-05T07:21:41;21.60;99.90
18388;DHT22;9320;50.256;19.026;2022-07-05T07:24:11;21.60;99.90
18388;DHT22;9320;50.256;19.026;2022-07-05T07:26:39;21.60;99.90
18388;DHT22;9320;50.256;19.026;2022-07-05T07:29:25;21.50;99.90
18388;DHT22;9320;50.256;19.026;2022-07-05T07:31:53;21.40;99.90
18388;DHT22;9320;50.256;19.026;2022-07-05T07:34:23;21.40;99.90
18388;DHT22;9320;50.256;19.026;2022-07-05T07:36:52;21.30;99.90
18388;DHT22;9320;50.256;19.026;2022-07-05T07:39:21;21.20;99.90
18388;DHT22;9320;50.256;19.026;2022-07-05T07:41:48;21.30;99.90
18388;DHT22;9320;50.256;19.026;2022-07-05T07:44:17;21.30;99.90
18388;DHT22;9320;50.256;19.026;2022-07-05T07:46:46;21.10;99.90
18388;DHT22;9320;50.256;19.026;2022-07-05T07:49:14;21.00;99.90
18388;DHT22;9320;50.256;19.026;2022-07-05T07:51:44;20.80;99.90
18388;DHT22;9320;50.256;19.026;2022-07-05T07:54:12;20.90;99.90
18388;DHT22;9320;50.256;19.026;2022-07-05T07:56:41;20.80;99.90
18388;DHT22;9320;50.256;19.026;2022-07-05T07:59:09;20.50;99.90
18388;DHT22;9320;50.256;19.026;2022-07-05T08:01:38;20.50;99.90
18388;DHT22;9320;50.256;19.026;2022-07-05T08:04:12;20.50;99.90
18388;DHT22;9320;50.256;19.026;2022-07-05T08:06:41;20.60;99.90
18388;DHT22;9320;50.256;19.026;2022-07-05T08:09:11;20.60;99.90
18388;DHT22;9320;50.256;19.026;2022-07-05T08:11:44;20.80;99.90
18388;DHT22;9320;50.256;19.026;2022-07-05T08:14:12;20.90;99.90
18388;DHT22;9320;50.256;19.026;2022-07-05T08:16:40;21.00;99.90
18388;DHT22;9320;50.256;19.026;2022-07-05T08:19:16;21.10;99.90
18388;DHT22;9320;50.256;19.026;2022-07-05T08:22:03;21.20;99.90
18388;DHT22;9320;50.256;19.026;2022-07-05T08:24:32;21.30;99.90
18388;DHT22;9320;50.256;19.026;2022-07-05T08:27:01;21.30;99.90
18388;DHT22;9320;50.256;19.026;2022-07-05T08:29:29;21.30;99.90
18388;DHT22;9320;50.256;19.026;2022-07-05T08:31:57;21.40;99.90
18388;DHT22;9320;50.256;19.026;2022-07-05T08:34:25;21.50;99.90
18388;DHT22;9320;50.256;19.026;2022-07-05T08:36:54;21.60;99.90
18388;DHT22;9320;50.256;19.026;2022-07-05T08:39:22;21.60;99.90
18388;DHT22;9320;50.256;19.026;2022-07-05T08:41:52;21.40;99.90
18388;DHT22;9320;50.256;19.026;2022-07-05T08:44:21;21.20;99.90
18388;DHT22;9320;50.256;19.026;2022-07-05T08:46:51;21.40;99.90
18388;DHT22;9320;50.256;19.026;2022-07-05T08:49:21;21.50;99.90
18388;DHT22;9320;50.256;19.026;2022-07-05T08:51:51;21.60;99.90
18388;DHT22;9320;50.256;19.026;2022-07-05T08:54:20;21.70;99.90
18388;DHT22;9320;50.256;19.026;2022-07-05T08:56:49;21.70;99.90
18388;DHT22;9320;50.256;19.026;2022-07-05T08:59:39;21.70;99.90
18388;DHT22;9320;50.256;19.026;2022-07-05T09:02:11;21.80;99.90
18388;DHT22;9320;50.256;19.026;2022-07-05T09:04:42;21.90;99.90
18388;DHT22;9320;50.256;19.026;2022-07-05T09:07:14;21.90;99.90
18388;DHT22;9320;50.256;19.026;2022-07-05T09:09:46;21.80;99.90
18388;DHT22;9320;50.256;19.026;2022-07-05T09:12:15;21.90;99.90
18388;DHT22;9320;50.256;19.026;2022-07-05T09:14:52;22.10;99.90
18388;DHT22;9320;50.256;19.026;2022-07-05T09:17:21;22.10;99.90
18388;DHT22;9320;50.256;19.026;2022-07-05T09:20:09;22.20;99.90
18388;DHT22;9320;50.256;19.026;2022-07-05T09:22:47;22.40;99.90
18388;DHT22;9320;50.256;19.026;2022-07-05T09:25:18;22.40;99.90
18388;DHT22;9320;50.256;19.026;2022-07-05T09:27:50;22.20;99.90
18388;DHT22;9320;50.256;19.026;2022-07-05T09:30:31;22.10;99.90
18388;DHT22;9320;50.256;19.026;2022-07-05T09:33:03;22.10;99.90
18388;DHT22;9320;50.256;19.026;2022-07-05T09:35:32;22.10;99.90
18388;DHT22;9320;50.256;19.026;2022-07-05T09:38:01;22.20;99.90
18388;DHT22;9320;50.256;19.026;2022-07-05T09:40:31;22.20;99.90
18388;DHT22;9320;50.256;19.026;2022-07-05T09:43:12;22.20;99.90
18388;DHT22;9320;50.256;19.026;2022-07-05T09:45:53;22.20;99.90
18388;DHT22;9320;50.256;19.026;2022-07-05T09:48:22;22.30;99.90
18388;DHT22;9320;50.256;19.026;2022-07-05T09:51:05;22.50;99.90
18388;DHT22;9320;50.256;19.026;2022-07-05T09:53:56;22.40;99.90
18388;DHT22;9320;50.256;19.026;2022-07-05T09:56:29;22.50;99.90
18388;DHT22;9320;50.256;19.026;2022-07-05T09:59:12;22.90;99.90
18388;DHT22;9320;50.256;19.026;2022-07-05T10:01:42;23.00;99.90
18388;DHT22;9320;50.256;19.026;2022-07-05T10:04:11;22.90;99.90
18388;DHT22;9320;50.256;19.026;2022-07-05T10:06:39;22.90;99.90
18388;DHT22;9320;50.256;19.026;2022-07-05T10:09:09;22.60;99.90
18388;DHT22;9320;50.256;19.026;2022-07-05T10:11:41;22.60;99.90
18388;DHT22;9320;50.256;19.026;2022-07-05T10:14:16;22.50;99.90
18388;DHT22;9320;50.256;19.026;2022-07-05T10:16:56;22.40;99.90
18388;DHT22;9320;50.256;19.026;2022-07-05T10:19:35;22.30;99.90
18388;DHT22;9320;50.256;19.026;2022-07-05T10:22:06;22.30;99.90
18388;DHT22;9320;50.256;19.026;2022-07-05T10:24:45;22.30;99.90
18388;DHT22;9320;50.256;19.026;2022-07-05T10:27:17;22.30;99.90
18388;DHT22;9320;50.256;19.026;2022-07-05T10:29:48;22.40;99.90
18388;DHT22;9320;50.256;19.026;2022-07-05T10:32:19;22.50;99.90
18388;DHT22;9320;50.256;19.026;2022-07-05T10:34:47;22.50;99.90
18388;DHT22;9320;50.256;19.026;2022-07-05T10:37:32;22.60;99.90
18388;DHT22;9320;50.256;19.026;2022-07-05T10:40:02;22.60;99.90
18388;DHT22;9320;50.256;19.026;2022-07-05T10:42:35;23.00;99.90
18388;DHT22;9320;50.256;19.026;2022-07-05T10:45:28;23.20;99.90
18388;DHT22;9320;50.256;19.026;2022-07-05T10:48:15;23.20;99.90
18388;DHT22;9320;50.256;19.026;2022-07-05T10:50:49;23.50;99.90
18388;DHT22;9320;50.256;19.026;2022-07-05T10:53:19;23.50;99.90
18388;DHT22;9320;50.256;19.026;2022-07-05T10:55:52;23.30;99.90
18388;DHT22;9320;50.256;19.026;2022-07-05T10:58:26;23.20;99.90
18388;DHT22;9320;50.256;19.026;2022-07-05T11:04:26;22.90;99.90
18388;DHT22;9320;50.256;19.026;2022-07-05T11:06:57;22.80;99.90
18388;DHT22;9320;50.256;19.026;2022-07-05T11:09:25;22.80;99.90
18388;DHT22;9320;50.256;19.026;2022-07-05T11:12:06;22.90;99.90
18388;DHT22;9320;50.256;19.026;2022-07-05T11:15:04;22.80;99.90
18388;DHT22;9320;50.256;19.026;2022-07-05T11:17:33;22.60;99.90
18388;DHT22;9320;50.256;19.026;2022-07-05T11:20:29;22.60;99.90
18388;DHT22;9320;50.256;19.026;2022-07-05T11:23:09;22.40;99.90
18388;DHT22;9320;50.256;19.026;2022-07-05T11:25:40;22.20;99.90
18388;DHT22;9320;50.256;19.026;2022-07-05T11:28:16;22.10;99.90
18388;DHT22;9320;50.256;19.026;2022-07-05T11:30:50;22.10;99.90
18388;DHT22;9320;50.256;19.026;2022-07-05T11:33:37;22.20;99.90
18388;DHT22;9320;50.256;19.026;2022-07-05T11:36:20;22.30;99.90
18388;DHT22;9320;50.256;19.026;2022-07-05T11:39:12;22.40;99.90
18388;DHT22;9320;50.256;19.026;2022-07-05T11:41:43;22.60;99.90
18388;DHT22;9320;50.256;19.026;2022-07-05T11:44:12;22.50;99.90
18388;DHT22;9320;50.256;19.026;2022-07-05T11:46:42;22.30;99.90
18388;DHT22;9320;50.256;19.026;2022-07-05T11:49:22;22.40;99.90
18388;DHT22;9320;50.256;19.026;2022-07-05T11:51:56;22.40;99.90
18388;DHT22;9320;50.256;19.026;2022-07-05T11:54:25;22.40;99.90
18388;DHT22;9320;50.256;19.026;2022-07-05T11:56:54;22.30;99.90
18388;DHT22;9320;50.256;19.026;2022-07-05T11:59:23;22.20;99.90
18388;DHT22;9320;50.256;19.026;2022-07-05T12:01:53;22.10;99.90
18388;DHT22;9320;50.256;19.026;2022-07-05T12:04:22;21.90;99.90
18388;DHT22;9320;50.256;19.026;2022-07-05T12:06:50;22.00;99.90
18388;DHT22;9320;50.256;19.026;2022-07-05T12:09:24;22.10;99.90
18388;DHT22;9320;50.256;19.026;2022-07-05T12:11:54;22.20;99.90
18388;DHT22;9320;50.256;19.026;2022-07-05T12:14:47;21.90;99.90
18388;DHT22;9320;50.256;19.026;2022-07-05T12:17:17;21.50;99.90
18388;DHT22;9320;50.256;19.026;2022-07-05T12:19:51;21.40;99.90
18388;DHT22;9320;50.256;19.026;2022-07-05T12:22:28;21.40;99.90
18388;DHT22;9320;50.256;19.026;2022-07-05T12:24:58;21.40;99.90
18388;DHT22;9320;50.256;19.026;2022-07-05T12:27:28;21.30;99.90
18388;DHT22;9320;50.256;19.026;2022-07-05T12:29:56;21.20;99.90
18388;DHT22;9320;50.256;19.026;2022-07-05T12:32:25;21.20;99.90
18388;DHT22;9320;50.256;19.026;2022-07-05T12:34:54;21.30;99.90
18388;DHT22;9320;50.256;19.026;2022-07-05T12:37:31;21.30;99.90
18388;DHT22;9320;50.256;19.026;2022-07-05T12:40:06;21.30;99.90
18388;DHT22;9320;50.256;19.026;2022-07-05T12:42:36;21.30;99.90
18388;DHT22;9320;50.256;19.026;2022-07-05T12:45:12;21.20;99.90
18388;DHT22;9320;50.256;19.026;2022-07-05T12:47:51;21.30;99.90
18388;DHT22;9320;50.256;19.026;2022-07-05T12:50:21;21.20;99.90
18388;DHT22;9320;50.256;19.026;2022-07-05T12:52:59;21.20;99.90
18388;DHT22;9320;50.256;19.026;2022-07-05T12:55:35;21.10;99.90
18388;DHT22;9320;50.256;19.026;2022-07-05T12:58:21;21.10;99.90
18388;DHT22;9320;50.256;19.026;2022-07-05T13:00:55;21.00;99.90
18388;DHT22;9320;50.256;19.026;2022-07-05T13:03:24;20.90;99.90
18388;DHT22;9320;50.256;19.026;2022-07-05T13:06:02;20.90;99.90
18388;DHT22;9320;50.256;19.026;2022-07-05T13:08:30;20.90;99.90
18388;DHT22;9320;50.256;19.026;2022-07-05T13:11:00;20.90;99.90
18388;DHT22;9320;50.256;19.026;2022-07-05T13:13:28;21.00;99.90
18388;DHT22;9320;50.256;19.026;2022-07-05T13:15:56;20.90;99.90
18388;DHT22;9320;50.256;19.026;2022-07-05T13:18:31;20.80;99.90
18388;DHT22;9320;50.256;19.026;2022-07-05T13:21:00;20.90;99.90
18388;DHT22;9320;50.256;19.026;2022-07-05T13:23:28;20.90;99.90
18388;DHT22;9320;50.256;19.026;2022-07-05T13:25:57;21.10;99.90
18388;DHT22;9320;50.256;19.026;2022-07-05T13:28:26;21.20;99.90
18388;DHT22;9320;50.256;19.026;2022-07-05T13:30:54;21.20;99.90
18388;DHT22;9320;50.256;19.026;2022-07-05T13:33:23;21.10;99.90
18388;DHT22;9320;50.256;19.026;2022-07-05T13:35:55;21.20;99.90
18388;DHT22;9320;50.256;19.026;2022-07-05T13:38:24;21.00;99.90
18388;DHT22;9320;50.256;19.026;2022-07-05T13:40:52;20.80;99.90
18388;DHT22;9320;50.256;19.026;2022-07-05T13:43:20;20.80;99.90
18388;DHT22;9320;50.256;19.026;2022-07-05T13:45:50;20.90;99.90
18388;DHT22;9320;50.256;19.026;2022-07-05T13:48:18;20.90;99.90
18388;DHT22;9320;50.256;19.026;2022-07-05T13:50:46;20.90;99.90
18388;DHT22;9320;50.256;19.026;2022-07-05T13:53:15;20.80;99.90
18388;DHT22;9320;50.256;19.026;2022-07-05T13:55:43;20.90;99.90
18388;DHT22;9320;50.256;19.026;2022-07-05T13:58:11;21.00;99.90
18388;DHT22;9320;50.256;19.026;2022-07-05T14:00:40;20.90;99.90
18388;DHT22;9320;50.256;19.026;2022-07-05T14:03:09;20.80;99.90
18388;DHT22;9320;50.256;19.026;2022-07-05T14:05:38;20.70;99.90
18388;DHT22;9320;50.256;19.026;2022-07-05T14:08:06;20.80;99.90
18388;DHT22;9320;50.256;19.026;2022-07-05T14:10:34;20.90;99.90
18388;DHT22;9320;50.256;19.026;2022-07-05T14:13:02;21.00;99.90
18388;DHT22;9320;50.256;19.026;2022-07-05T14:15:31;21.10;99.90
18388;DHT22;9320;50.256;19.026;2022-07-05T14:17:59;21.20;99.90
18388;DHT22;9320;50.256;19.026;2022-07-05T14:20:30;21.10;99.90
18388;DHT22;9320;50.256;19.026;2022-07-05T14:22:58;21.00;99.90
18388;DHT22;9320;50.256;19.026;2022-07-05T14:25:27;21.00;99.90
18388;DHT22;9320;50.256;19.026;2022-07-05T14:27:55;21.10;99.90
18388;DHT22;9320;50.256;19.026;2022-07-05T14:30:23;21.20;99.90
18388;DHT22;9320;50.256;19.026;2022-07-05T14:32:53;21.20;99.90
18388;DHT22;9320;50.256;19.026;2022-07-05T14:35:21;20.90;99.90
18388;DHT22;9320;50.256;19.026;2022-07-05T14:37:52;20.90;99.90
18388;DHT22;9320;50.256;19.026;2022-07-05T14:40:20;20.80;99.90
18388;DHT22;9320;50.256;19.026;2022-07-05T14:42:50;20.70;99.90
18388;DHT22;9320;50.256;19.026;2022-07-05T14:45:19;20.50;99.90
18388;DHT22;9320;50.256;19.026;2022-07-05T14:47:54;20.50;99.90
18388;DHT22;9320;50.256;19.026;2022-07-05T14:50:22;20.50;99.90
18388;DHT22;9320;50.256;19.026;2022-07-05T14:52:53;20.40;99.90
18388;DHT22;9320;50.256;19.026;2022-07-05T14:55:21;20.40;99.90
18388;DHT22;9320;50.256;19.026;2022-07-05T14:57:49;20.30;99.90
18388;DHT22;9320;50.256;19.026;2022-07-05T15:00:18;20.20;99.90
18388;DHT22;9320;50.256;19.026;2022-07-05T15:02:46;20.20;99.90
18388;DHT22;9320;50.256;19.026;2022-07-05T15:05:14;20.20;99.90
18388;DHT22;9320;50.256;19.026;2022-07-05T15:07:42;20.30;99.90
18388;DHT22;9320;50.256;19.026;2022-07-05T15:10:12;20.40;99.90
18388;DHT22;9320;50.256;19.026;2022-07-05T15:12:40;20.40;99.90
18388;DHT22;9320;50.256;19.026;2022-07-05T15:15:09;20.50;99.90
18388;DHT22;9320;50.256;19.026;2022-07-05T15:17:37;20.50;99.90
18388;DHT22;9320;50.256;19.026;2022-07-05T15:20:06;20.50;99.90
18388;DHT22;9320;50.256;19.026;2022-07-05T15:22:35;20.50;99.90
18388;DHT22;9320;50.256;19.026;2022-07-05T15:25:04;20.50;99.90
18388;DHT22;9320;50.256;19.026;2022-07-05T15:27:34;20.50;99.90
18388;DHT22;9320;50.256;19.026;2022-07-05T15:30:03;20.40;99.90
18388;DHT22;9320;50.256;19.026;2022-07-05T15:32:31;20.40;99.90
18388;DHT22;9320;50.256;19.026;2022-07-05T15:34:59;20.50;99.90
18388;DHT22;9320;50.256;19.026;2022-07-05T15:37:28;20.50;99.90
18388;DHT22;9320;50.256;19.026;2022-07-05T15:39:56;20.50;99.90
18388;DHT22;9320;50.256;19.026;2022-07-05T15:42:25;20.50;99.90
18388;DHT22;9320;50.256;19.026;2022-07-05T15:44:55;20.60;99.90
18388;DHT22;9320;50.256;19.026;2022-07-05T15:47:29;20.60;99.90
18388;DHT22;9320;50.256;19.026;2022-07-05T15:49:57;20.40;99.90
18388;DHT22;9320;50.256;19.026;2022-07-05T15:52:25;20.40;99.90
18388;DHT22;9320;50.256;19.026;2022-07-05T15:54:53;20.40;99.90